createdAt,value
2022-10-14T00:01:30.759Z,5.70
2022-10-14T00:06:35.795Z,5.60
2022-10-14T00:11:33.829Z,5.60
2022-10-14T00:16:33.107Z,5.60
2022-10-14T00:21:30.694Z,5.54
2022-10-14T00:26:30.203Z,5.58
2022-10-14T00:31:25.790Z,5.60
2022-10-14T00:36:23.668Z,5.60
2022-10-14T00:41:25.165Z,5.60
2022-10-14T00:46:20.207Z,5.70
2022-10-14T00:51:16.046Z,5.70
2022-10-14T00:56:13.900Z,5.80
2022-10-14T01:01:09.330Z,5.80
2022-10-14T01:06:21.014Z,5.80
2022-10-14T01:11:28.655Z,5.84
2022-10-14T01:16:39.626Z,5.90
2022-10-14T01:21:42.453Z,5.90
2022-10-14T01:27:39.943Z,5.90
2022-10-14T01:32:57.783Z,5.90
2022-10-14T01:38:01.189Z,5.90
2022-10-14T01:43:00.163Z,5.90
2022-10-14T01:47:58.862Z,5.96
2022-10-14T01:53:04.211Z,6.00
2022-10-14T01:58:01.902Z,6.02
2022-10-14T02:02:57.323Z,6.10
2022-10-14T02:08:00.046Z,6.20
2022-10-14T02:13:13.172Z,6.24
2022-10-14T02:18:19.511Z,6.30
2022-10-14T02:23:20.831Z,6.34
2022-10-14T02:28:21.994Z,6.40
2022-10-14T02:33:20.228Z,6.40
2022-10-14T02:38:17.625Z,6.40
2022-10-14T02:43:13.482Z,6.40
2022-10-14T02:48:10.464Z,6.48
2022-10-14T02:53:06.979Z,6.50
2022-10-14T02:58:01.608Z,6.50
2022-10-14T03:02:56.514Z,6.50
2022-10-14T03:07:52.477Z,6.50
2022-10-14T03:12:47.604Z,6.50
2022-10-14T03:17:50.779Z,6.50
2022-10-14T03:22:47.993Z,6.40
2022-10-14T03:27:44.291Z,6.40
2022-10-14T03:32:41.297Z,6.40
2022-10-14T03:38:08.873Z,6.46
2022-10-14T03:43:03.876Z,6.50
2022-10-14T03:48:06.947Z,6.50
2022-10-14T03:53:07.077Z,6.50
2022-10-14T03:58:04.207Z,6.60
2022-10-14T04:02:59.390Z,6.60
2022-10-14T04:08:04.312Z,6.60
2022-10-14T04:12:59.660Z,6.68
2022-10-14T04:18:00.096Z,6.70
2022-10-14T04:23:00.240Z,6.70
2022-10-14T04:27:56.904Z,6.72
2022-10-14T04:32:58.629Z,6.70
2022-10-14T04:37:54.336Z,6.70
2022-10-14T04:42:56.258Z,6.70
2022-10-14T04:47:54.104Z,6.70
2022-10-14T04:52:50.783Z,6.62
2022-10-14T04:57:47.153Z,6.60
2022-10-14T05:02:42.980Z,6.70
2022-10-14T05:07:38.711Z,6.70
2022-10-14T05:12:48.733Z,6.70
2022-10-14T05:17:44.844Z,6.80
2022-10-14T05:22:43.667Z,6.80
2022-10-14T05:27:38.819Z,6.90
2022-10-14T05:32:34.248Z,6.90
2022-10-14T05:37:32.227Z,7.00
2022-10-14T05:42:28.457Z,7.10
2022-10-14T05:47:25.032Z,7.20
2022-10-14T05:52:25.561Z,7.30
2022-10-14T05:57:21.400Z,7.40
2022-10-14T06:02:17.383Z,7.54
2022-10-14T06:07:12.801Z,7.70
2022-10-14T06:12:10.022Z,7.80
2022-10-14T06:17:05.977Z,7.90
2022-10-14T06:22:01.771Z,8.00
2022-10-14T06:26:57.550Z,8.10
2022-10-14T06:31:52.809Z,8.20
2022-10-14T06:36:50.106Z,8.22
2022-10-14T06:41:45.395Z,8.30
2022-10-14T06:46:46.927Z,8.40
2022-10-14T06:51:42.209Z,8.52
2022-10-14T06:56:37.297Z,8.70
2022-10-14T07:01:32.316Z,8.80
2022-10-14T07:06:27.901Z,8.90
2022-10-14T07:11:22.739Z,9.00
2022-10-14T07:16:17.532Z,9.10
2022-10-14T07:21:12.868Z,9.20
2022-10-14T07:26:08.478Z,9.30
2022-10-14T07:31:06.714Z,9.40
2022-10-14T07:36:05.908Z,9.58
2022-10-14T07:41:04.890Z,9.70
2022-10-14T07:46:04.695Z,9.80
2022-10-14T07:50:59.902Z,9.94
2022-10-14T07:55:58.063Z,10.10
2022-10-14T08:00:54.197Z,10.20
2022-10-14T08:05:50.272Z,10.30
2022-10-14T08:10:46.575Z,10.50
2022-10-14T08:15:42.712Z,10.76
2022-10-14T08:20:38.197Z,11.00
2022-10-14T08:25:33.038Z,11.30
2022-10-14T08:30:27.925Z,11.50
2022-10-14T08:35:22.944Z,11.80
2022-10-14T08:40:18.604Z,12.10
2022-10-14T08:45:25.153Z,12.40
2022-10-14T08:50:31.943Z,12.70
2022-10-14T08:55:37.271Z,13.00
2022-10-14T09:00:35.502Z,13.26
2022-10-14T09:05:30.446Z,13.50
2022-10-14T09:10:33.530Z,13.70
2022-10-14T09:15:35.800Z,13.98
2022-10-14T09:20:30.639Z,14.20
2022-10-14T09:25:26.646Z,14.48
2022-10-14T09:30:22.268Z,14.68
2022-10-14T09:35:25.576Z,14.98
2022-10-14T09:40:30.994Z,15.30
2022-10-14T09:45:29.593Z,15.60
2022-10-14T09:50:48.564Z,15.80
2022-10-14T09:55:53.484Z,16.00
2022-10-14T10:00:57.058Z,16.10
2022-10-14T10:06:06.545Z,16.10
2022-10-14T10:11:06.751Z,16.00
2022-10-14T10:16:05.782Z,16.00
2022-10-14T10:21:14.903Z,15.90
2022-10-14T10:26:25.287Z,15.80
2022-10-14T10:31:37.657Z,15.90
2022-10-14T10:36:41.257Z,16.00
2022-10-14T10:41:53.883Z,16.10
2022-10-14T10:47:11.270Z,16.18
2022-10-14T10:52:21.452Z,16.30
2022-10-14T10:57:36.249Z,16.50
2022-10-14T11:03:01.569Z,16.78
2022-10-14T11:08:21.959Z,17.20
2022-10-14T11:13:30.828Z,17.60
2022-10-14T11:18:44.776Z,17.80
2022-10-14T11:23:59.217Z,17.90
2022-10-14T11:29:05.454Z,18.10
2022-10-14T11:34:20.690Z,18.32
2022-10-14T11:39:35.544Z,18.70
2022-10-14T11:44:38.028Z,19.20
2022-10-14T11:49:42.757Z,19.66
2022-10-14T11:54:44.147Z,20.00
2022-10-14T11:59:53.322Z,20.30
2022-10-14T12:04:56.341Z,20.68
2022-10-14T12:09:59.977Z,20.84
2022-10-14T12:15:00.555Z,20.70
2022-10-14T12:19:56.541Z,20.30
2022-10-14T12:24:57.279Z,19.80
2022-10-14T12:29:56.960Z,19.56
2022-10-14T12:34:54.983Z,19.70
2022-10-14T12:39:52.631Z,20.00
2022-10-14T12:44:52.112Z,20.26
2022-10-14T12:49:53.599Z,20.40
2022-10-14T12:59:52.093Z,21.00
2022-10-14T13:04:53.521Z,21.10
2022-10-14T13:09:56.992Z,21.10
2022-10-14T13:15:01.984Z,21.00
2022-10-14T13:19:56.477Z,20.90
2022-10-14T13:24:51.642Z,20.70
2022-10-14T13:30:06.101Z,20.40
2022-10-14T13:35:19.077Z,20.00
2022-10-14T13:40:29.610Z,19.70
2022-10-14T13:45:41.310Z,19.44
2022-10-14T13:50:39.622Z,19.20
2022-10-14T13:55:51.580Z,18.90
2022-10-14T14:01:02.344Z,18.64
2022-10-14T14:05:58.345Z,18.40
2022-10-14T14:11:15.589Z,18.20
2022-10-14T14:16:25.281Z,18.00
2022-10-14T14:21:23.953Z,17.82
2022-10-14T14:26:19.839Z,17.70
2022-10-14T14:31:22.096Z,17.50
2022-10-14T14:36:27.440Z,17.30
2022-10-14T14:41:26.208Z,17.10
2022-10-14T14:46:31.025Z,16.90
2022-10-14T14:51:35.707Z,16.70
2022-10-14T14:56:41.284Z,16.60
2022-10-14T15:01:36.478Z,16.42
2022-10-14T15:06:31.337Z,16.30
2022-10-14T15:11:27.265Z,16.20
2022-10-14T15:16:40.897Z,16.10
2022-10-14T15:21:36.656Z,15.92
2022-10-14T15:26:35.244Z,15.84
2022-10-14T15:31:31.181Z,15.78
2022-10-14T15:36:28.455Z,15.70
2022-10-14T15:41:23.283Z,15.58
2022-10-14T15:46:36.888Z,15.44
2022-10-14T15:51:33.300Z,15.30
2022-10-14T15:56:28.945Z,15.20
2022-10-14T16:01:25.204Z,15.10
2022-10-14T16:06:22.043Z,15.00
2022-10-14T16:11:22.976Z,14.90
2022-10-14T16:16:25.755Z,14.80
2022-10-14T16:21:21.123Z,14.70
2022-10-14T16:26:15.705Z,14.70
2022-10-14T16:31:14.616Z,14.60
2022-10-14T16:36:15.607Z,14.50
2022-10-14T16:41:12.002Z,14.40
2022-10-14T16:46:10.593Z,14.38
2022-10-14T16:51:08.893Z,14.30
2022-10-14T16:56:25.013Z,14.20
2022-10-14T17:01:20.489Z,14.20
2022-10-14T17:06:21.699Z,14.10
2022-10-14T17:11:20.860Z,14.08
2022-10-14T17:16:15.887Z,14.00
2022-10-14T17:21:12.948Z,13.90
2022-10-14T17:26:11.461Z,13.80
2022-10-14T17:31:13.972Z,13.80
2022-10-14T17:36:17.724Z,13.70
2022-10-14T17:41:14.534Z,13.64
2022-10-14T17:46:12.391Z,13.60
2022-10-14T17:51:08.317Z,13.56
2022-10-14T17:56:07.970Z,13.50
2022-10-14T18:01:09.861Z,13.44
2022-10-14T18:06:15.131Z,13.40
2022-10-14T18:11:12.522Z,13.40
2022-10-14T18:16:11.564Z,13.30
2022-10-14T18:21:08.777Z,13.30
2022-10-14T18:26:12.591Z,13.20
2022-10-14T18:31:12.493Z,13.20
2022-10-14T18:36:12.307Z,13.10
2022-10-14T18:41:11.202Z,13.10
2022-10-14T18:46:10.349Z,13.00
2022-10-14T18:51:08.267Z,13.00
2022-10-14T18:56:10.029Z,12.90
2022-10-14T19:01:06.247Z,12.90
2022-10-14T19:06:02.167Z,12.80
2022-10-14T19:11:04.118Z,12.70
2022-10-14T19:16:04.786Z,12.60
2022-10-14T19:21:08.530Z,12.50
2022-10-14T19:26:31.306Z,12.40
2022-10-14T19:31:29.358Z,12.30
2022-10-14T19:36:26.597Z,12.20
2022-10-14T19:41:22.117Z,12.18
2022-10-14T19:46:16.733Z,12.10
2022-10-14T19:51:12.194Z,12.10
2022-10-14T19:56:13.163Z,12.00
2022-10-14T20:01:15.024Z,11.90
2022-10-14T20:06:15.266Z,11.82
2022-10-14T20:11:13.999Z,11.80
2022-10-14T20:16:11.886Z,11.70
2022-10-14T20:21:12.263Z,11.70
2022-10-14T20:26:12.183Z,11.60
2022-10-14T20:31:11.898Z,11.60
2022-10-14T20:36:12.298Z,11.50
2022-10-14T20:41:14.402Z,11.50
2022-10-14T20:46:09.777Z,11.44
2022-10-14T20:51:09.624Z,11.40
2022-10-14T20:56:08.851Z,11.40
2022-10-14T21:01:10.785Z,11.32
2022-10-14T21:06:09.916Z,11.30
2022-10-14T21:11:12.042Z,11.26
2022-10-14T21:16:25.598Z,11.20
2022-10-14T21:21:22.172Z,11.18
2022-10-14T21:26:17.754Z,11.10
2022-10-14T21:31:18.772Z,11.02
2022-10-14T21:36:16.988Z,11.00
2022-10-14T21:41:12.714Z,10.90
2022-10-14T21:46:12.241Z,10.90
2022-10-14T21:51:11.252Z,10.80
2022-10-14T21:56:07.488Z,10.80
2022-10-14T22:01:06.078Z,10.70
2022-10-14T22:11:01.501Z,10.60
2022-10-14T22:15:57.454Z,10.50
2022-10-14T22:21:03.241Z,10.50
2022-10-14T22:26:02.246Z,10.40
2022-10-14T22:30:57.604Z,10.30
2022-10-14T22:36:04.315Z,10.30
2022-10-14T22:41:03.063Z,10.20
2022-10-14T22:46:04.520Z,10.10
2022-10-14T22:51:04.476Z,10.00
2022-10-14T22:56:00.310Z,9.98
2022-10-14T23:00:55.746Z,9.90
2022-10-14T23:05:50.815Z,9.90
2022-10-14T23:10:45.779Z,9.80
2022-10-14T23:15:53.899Z,9.80
2022-10-14T23:20:48.411Z,9.80
2022-10-14T23:25:45.373Z,9.70
2022-10-14T23:30:42.081Z,9.70
2022-10-14T23:35:37.297Z,9.66
2022-10-14T23:40:33.237Z,9.60
2022-10-14T23:45:28.720Z,9.60
2022-10-14T23:50:23.345Z,9.60
2022-10-14T23:55:19.535Z,9.50
